Valkenburg, Nederland

2:41 PM CEST op 30 juni 2015 (GMT +0200)
Netherlands | | Change Station
CLOSE
Current Station
Persoonlijk weerstation
Location: Oegstgeest, ZUID-HOLLAND
Geometrische hoogte: 7 ft
Nabije weerstations

Hoogte 7 ft 52.18 °N, 4.47 °E | Updated 46 minutes ago

Clear
Helder
82.3 °F
Voelt als 81 °F
N
5.0
Wind Variabel Wind van ZZO
Gusts 9.0 mijl/u

Vandaag
Hoog -- | Laag -- °F
--% Kans op neerslag
Gisteren
Hoog -- | Laag -- °F
Precip. -- inches
5:24 AM 10:06 PM
Wassende maan, 97% visible
Druk 30.15 inches
Zicht 6.2 mijlen
Wolken
Warmteindex 81 °F
Dauwpunt 53 °F
Vochtigheid 37%
Neerslag 0.00 inches
Dikte sneeuw Niet beschikbaar.
UV Niet beschikbaar.
Pollen Niet beschikbaar.
Luchtkwaliteit Niet beschikbaar.
Flu Activity Niet beschikbaar.
METAR EHRD 301225Z AUTO 08008KT 360V150 9999 NSC 26/12 Q1021 NOSIG

More Conditions Fewer Conditions

Druk 30.15 inches
Zicht 6.2 mijlen
Wolken
Warmteindex 81 °F
Dauwpunt 53 °F
Vochtigheid 37%
Neerslag 0.00 inches
Dikte sneeuw Niet beschikbaar.
UV Niet beschikbaar.
Pollen Niet beschikbaar.
Luchtkwaliteit Niet beschikbaar.
Flu Activity Niet beschikbaar.
METAR EHRD 301225Z AUTO 08008KT 360V150 9999 NSC 26/12 Q1021 NOSIG

More Conditions Fewer Conditions

10-Day Weather Forecast

×

Almanac

Astronomie

Jun. 30, 2015 Opkomst Ondergang
Werkelijke tijd
Burgerlijke schemering
Nautische schemering
Astronomische schemering
Maan
Golflengte van het zichtbare licht
Daglengte
Tomorrow will be .
, % of the Moon is Illuminated

Extremen vandaag

Country Highs Country Lows

Community

WunderPhotos

Upload Photos

1,833,986 foto’s ge-upload!

WunderBlogs® & News

Nearby

Luchtkwaliteit

  Luchtkwaliteit LK-index Verontreinigende stof
Not available.

Dikte sneeuw

Station Depth Geometrische hoogte

Aardbevingen

Stad Distance Mag. Time & Date
Minimum magnitude displayed is 2.5.

Watertemperatuur langs de kust

Plaats Temperatuur

Stations

Nabije weerstations

Locatie station Temp. Gevoelstemperatuur Dauwpunt Vochtigheid Wind Precip. Hoogte Geactualiseerd Type